sensor_id;sensor_type;location;lat;lon;timestamp;P1;durP1;ratioP1;P2;durP2;ratioP2
62990;SDS011;49084;48.204;16.202;2023-04-03T00:01:27;3.10;;;2.38;;
62990;SDS011;49084;48.204;16.202;2023-04-03T00:03:53;3.28;;;1.98;;
62990;SDS011;49084;48.204;16.202;2023-04-03T00:06:19;2.55;;;1.92;;
62990;SDS011;49084;48.204;16.202;2023-04-03T00:08:45;4.03;;;2.67;;
62990;SDS011;49084;48.204;16.202;2023-04-03T00:11:11;2.38;;;2.17;;
62990;SDS011;49084;48.204;16.202;2023-04-03T00:13:37;2.75;;;2.38;;
62990;SDS011;49084;48.204;16.202;2023-04-03T00:16:03;4.13;;;3.10;;
62990;SDS011;49084;48.204;16.202;2023-04-03T00:18:29;2.67;;;2.08;;
62990;SDS011;49084;48.204;16.202;2023-04-03T00:20:55;3.45;;;2.70;;
62990;SDS011;49084;48.204;16.202;2023-04-03T00:23:21;4.15;;;2.95;;
62990;SDS011;49084;48.204;16.202;2023-04-03T00:25:48;4.47;;;2.65;;
62990;SDS011;49084;48.204;16.202;2023-04-03T00:28:15;2.97;;;2.67;;
62990;SDS011;49084;48.204;16.202;2023-04-03T00:30:41;3.78;;;2.45;;
62990;SDS011;49084;48.204;16.202;2023-04-03T00:33:07;3.78;;;2.45;;
62990;SDS011;49084;48.204;16.202;2023-04-03T00:35:34;2.47;;;2.13;;
62990;SDS011;49084;48.204;16.202;2023-04-03T00:38:00;3.25;;;2.72;;
62990;SDS011;49084;48.204;16.202;2023-04-03T00:40:26;2.28;;;2.08;;
62990;SDS011;49084;48.204;16.202;2023-04-03T00:42:57;3.38;;;2.60;;
62990;SDS011;49084;48.204;16.202;2023-04-03T00:47:53;3.75;;;2.35;;
62990;SDS011;49084;48.204;16.202;2023-04-03T00:50:19;2.22;;;2.00;;
62990;SDS011;49084;48.204;16.202;2023-04-03T00:52:45;4.38;;;2.65;;
62990;SDS011;49084;48.204;16.202;2023-04-03T00:55:14;2.83;;;2.50;;
62990;SDS011;49084;48.204;16.202;2023-04-03T00:57:41;3.45;;;2.50;;
62990;SDS011;49084;48.204;16.202;2023-04-03T01:00:08;3.88;;;2.38;;
62990;SDS011;49084;48.204;16.202;2023-04-03T01:02:37;9.82;;;3.70;;
62990;SDS011;49084;48.204;16.202;2023-04-03T01:05:05;3.38;;;2.50;;
62990;SDS011;49084;48.204;16.202;2023-04-03T01:07:31;3.65;;;2.30;;
62990;SDS011;49084;48.204;16.202;2023-04-03T01:10:04;5.18;;;2.70;;
62990;SDS011;49084;48.204;16.202;2023-04-03T01:12:33;5.05;;;2.40;;
62990;SDS011;49084;48.204;16.202;2023-04-03T01:15:11;5.85;;;2.80;;
62990;SDS011;49084;48.204;16.202;2023-04-03T01:22:59;3.05;;;2.17;;
62990;SDS011;49084;48.204;16.202;2023-04-03T01:25:47;4.10;;;2.50;;
62990;SDS011;49084;48.204;16.202;2023-04-03T01:28:20;3.25;;;2.63;;
62990;SDS011;49084;48.204;16.202;2023-04-03T01:34:01;3.85;;;2.40;;
62990;SDS011;49084;48.204;16.202;2023-04-03T01:36:28;5.30;;;2.80;;
62990;SDS011;49084;48.204;16.202;2023-04-03T01:38:56;1.73;;;1.58;;
62990;SDS011;49084;48.204;16.202;2023-04-03T01:41:24;4.18;;;2.35;;
62990;SDS011;49084;48.204;16.202;2023-04-03T01:43:50;4.05;;;2.75;;
62990;SDS011;49084;48.204;16.202;2023-04-03T01:46:17;4.63;;;2.33;;
62990;SDS011;49084;48.204;16.202;2023-04-03T01:48:43;4.68;;;2.40;;
62990;SDS011;49084;48.204;16.202;2023-04-03T01:51:09;3.63;;;2.50;;
62990;SDS011;49084;48.204;16.202;2023-04-03T01:53:35;4.35;;;2.85;;
62990;SDS011;49084;48.204;16.202;2023-04-03T01:56:01;3.90;;;2.55;;
62990;SDS011;49084;48.204;16.202;2023-04-03T01:58:27;3.08;;;2.40;;
62990;SDS011;49084;48.204;16.202;2023-04-03T02:00:52;2.15;;;1.95;;
62990;SDS011;49084;48.204;16.202;2023-04-03T02:03:19;5.75;;;2.25;;
62990;SDS011;49084;48.204;16.202;2023-04-03T02:05:45;3.75;;;2.72;;
62990;SDS011;49084;48.204;16.202;2023-04-03T02:08:11;3.60;;;2.58;;
62990;SDS011;49084;48.204;16.202;2023-04-03T02:10:36;2.63;;;2.30;;
62990;SDS011;49084;48.204;16.202;2023-04-03T02:13:02;3.05;;;2.47;;
62990;SDS011;49084;48.204;16.202;2023-04-03T02:15:28;3.70;;;2.55;;
62990;SDS011;49084;48.204;16.202;2023-04-03T02:17:54;4.50;;;2.45;;
62990;SDS011;49084;48.204;16.202;2023-04-03T02:20:20;4.00;;;2.65;;
62990;SDS011;49084;48.204;16.202;2023-04-03T02:22:46;4.50;;;3.20;;
62990;SDS011;49084;48.204;16.202;2023-04-03T02:25:12;3.60;;;2.40;;
62990;SDS011;49084;48.204;16.202;2023-04-03T02:27:38;4.05;;;2.85;;
62990;SDS011;49084;48.204;16.202;2023-04-03T02:30:04;5.03;;;2.95;;
62990;SDS011;49084;48.204;16.202;2023-04-03T02:32:30;4.32;;;3.75;;
62990;SDS011;49084;48.204;16.202;2023-04-03T02:34:56;3.35;;;2.67;;
62990;SDS011;49084;48.204;16.202;2023-04-03T02:37:22;4.72;;;2.97;;
62990;SDS011;49084;48.204;16.202;2023-04-03T02:39:47;3.72;;;2.42;;
62990;SDS011;49084;48.204;16.202;2023-04-03T02:42:13;3.38;;;2.35;;
62990;SDS011;49084;48.204;16.202;2023-04-03T02:44:39;6.90;;;3.50;;
62990;SDS011;49084;48.204;16.202;2023-04-03T02:47:05;3.42;;;2.63;;
62990;SDS011;49084;48.204;16.202;2023-04-03T02:49:30;5.30;;;2.92;;
62990;SDS011;49084;48.204;16.202;2023-04-03T02:51:56;4.78;;;2.75;;
62990;SDS011;49084;48.204;16.202;2023-04-03T02:54:22;5.30;;;2.83;;
62990;SDS011;49084;48.204;16.202;2023-04-03T02:56:49;5.15;;;3.13;;
62990;SDS011;49084;48.204;16.202;2023-04-03T02:59:15;5.45;;;3.17;;
62990;SDS011;49084;48.204;16.202;2023-04-03T03:01:41;5.00;;;3.10;;
62990;SDS011;49084;48.204;16.202;2023-04-03T03:04:06;6.30;;;3.08;;
62990;SDS011;49084;48.204;16.202;2023-04-03T03:06:32;5.70;;;3.10;;
62990;SDS011;49084;48.204;16.202;2023-04-03T03:08:58;3.28;;;2.67;;
62990;SDS011;49084;48.204;16.202;2023-04-03T03:11:24;3.85;;;2.92;;
62990;SDS011;49084;48.204;16.202;2023-04-03T03:13:50;3.95;;;2.95;;
62990;SDS011;49084;48.204;16.202;2023-04-03T03:16:16;3.55;;;3.03;;
62990;SDS011;49084;48.204;16.202;2023-04-03T03:18:41;3.45;;;2.75;;
62990;SDS011;49084;48.204;16.202;2023-04-03T03:21:08;5.15;;;3.08;;
62990;SDS011;49084;48.204;16.202;2023-04-03T03:23:35;4.67;;;3.03;;
62990;SDS011;49084;48.204;16.202;2023-04-03T03:26:03;3.60;;;3.20;;
62990;SDS011;49084;48.204;16.202;2023-04-03T03:28:31;4.50;;;2.72;;
62990;SDS011;49084;48.204;16.202;2023-04-03T03:30:58;5.85;;;3.38;;
62990;SDS011;49084;48.204;16.202;2023-04-03T03:33:24;5.38;;;3.25;;
62990;SDS011;49084;48.204;16.202;2023-04-03T03:35:51;4.32;;;3.13;;
62990;SDS011;49084;48.204;16.202;2023-04-03T03:38:17;5.75;;;3.42;;
62990;SDS011;49084;48.204;16.202;2023-04-03T03:40:43;6.68;;;2.60;;
62990;SDS011;49084;48.204;16.202;2023-04-03T03:43:09;4.57;;;3.20;;
62990;SDS011;49084;48.204;16.202;2023-04-03T03:45:35;5.00;;;3.10;;
62990;SDS011;49084;48.204;16.202;2023-04-03T03:48:01;4.57;;;3.03;;
62990;SDS011;49084;48.204;16.202;2023-04-03T03:50:27;3.30;;;2.60;;
62990;SDS011;49084;48.204;16.202;2023-04-03T03:52:53;5.22;;;3.00;;
62990;SDS011;49084;48.204;16.202;2023-04-03T03:55:18;3.30;;;2.88;;
62990;SDS011;49084;48.204;16.202;2023-04-03T03:57:44;5.43;;;2.90;;
62990;SDS011;49084;48.204;16.202;2023-04-03T04:00:10;5.05;;;3.03;;
62990;SDS011;49084;48.204;16.202;2023-04-03T04:02:36;4.60;;;2.78;;
62990;SDS011;49084;48.204;16.202;2023-04-03T04:05:02;3.80;;;2.50;;
62990;SDS011;49084;48.204;16.202;2023-04-03T04:07:28;5.80;;;3.30;;
62990;SDS011;49084;48.204;16.202;2023-04-03T04:09:54;3.00;;;2.47;;
62990;SDS011;49084;48.204;16.202;2023-04-03T04:12:20;4.95;;;2.80;;
62990;SDS011;49084;48.204;16.202;2023-04-03T04:14:46;7.70;;;2.67;;
62990;SDS011;49084;48.204;16.202;2023-04-03T04:17:15;4.80;;;3.28;;
62990;SDS011;49084;48.204;16.202;2023-04-03T04:22:06;5.28;;;2.58;;
62990;SDS011;49084;48.204;16.202;2023-04-03T04:24:32;5.25;;;2.70;;
62990;SDS011;49084;48.204;16.202;2023-04-03T04:26:58;9.25;;;3.30;;
62990;SDS011;49084;48.204;16.202;2023-04-03T04:29:23;4.88;;;2.85;;
62990;SDS011;49084;48.204;16.202;2023-04-03T04:31:49;5.47;;;2.97;;
62990;SDS011;49084;48.204;16.202;2023-04-03T04:34:15;3.97;;;2.72;;
62990;SDS011;49084;48.204;16.202;2023-04-03T04:36:41;4.82;;;3.05;;
62990;SDS011;49084;48.204;16.202;2023-04-03T04:39:07;6.65;;;2.83;;
62990;SDS011;49084;48.204;16.202;2023-04-03T04:41:33;4.95;;;3.00;;
62990;SDS011;49084;48.204;16.202;2023-04-03T04:43:59;3.58;;;2.80;;
62990;SDS011;49084;48.204;16.202;2023-04-03T04:46:25;5.53;;;2.90;;
62990;SDS011;49084;48.204;16.202;2023-04-03T04:48:51;4.65;;;3.15;;
62990;SDS011;49084;48.204;16.202;2023-04-03T04:51:17;4.18;;;2.80;;
62990;SDS011;49084;48.204;16.202;2023-04-03T04:53:43;4.15;;;3.00;;
62990;SDS011;49084;48.204;16.202;2023-04-03T04:56:09;4.95;;;2.78;;
62990;SDS011;49084;48.204;16.202;2023-04-03T04:58:35;3.92;;;2.95;;
62990;SDS011;49084;48.204;16.202;2023-04-03T05:01:02;5.20;;;2.90;;
62990;SDS011;49084;48.204;16.202;2023-04-03T05:03:29;5.33;;;3.23;;
62990;SDS011;49084;48.204;16.202;2023-04-03T05:05:55;6.72;;;3.13;;
62990;SDS011;49084;48.204;16.202;2023-04-03T05:08:21;5.07;;;2.78;;
62990;SDS011;49084;48.204;16.202;2023-04-03T05:10:47;3.30;;;2.40;;
62990;SDS011;49084;48.204;16.202;2023-04-03T05:13:13;6.55;;;2.95;;
62990;SDS011;49084;48.204;16.202;2023-04-03T05:15:39;3.42;;;2.47;;
62990;SDS011;49084;48.204;16.202;2023-04-03T05:18:05;4.63;;;3.03;;
62990;SDS011;49084;48.204;16.202;2023-04-03T05:20:31;5.97;;;2.50;;
62990;SDS011;49084;48.204;16.202;2023-04-03T05:22:58;2.75;;;2.35;;
62990;SDS011;49084;48.204;16.202;2023-04-03T05:25:23;5.75;;;2.50;;
62990;SDS011;49084;48.204;16.202;2023-04-03T05:27:49;3.90;;;2.20;;
62990;SDS011;49084;48.204;16.202;2023-04-03T05:30:15;4.90;;;2.38;;
62990;SDS011;49084;48.204;16.202;2023-04-03T05:32:41;4.05;;;2.13;;
62990;SDS011;49084;48.204;16.202;2023-04-03T05:35:07;3.95;;;2.03;;
62990;SDS011;49084;48.204;16.202;2023-04-03T05:37:33;6.55;;;2.55;;
62990;SDS011;49084;48.204;16.202;2023-04-03T05:39:59;3.15;;;2.00;;
62990;SDS011;49084;48.204;16.202;2023-04-03T05:42:25;2.50;;;2.08;;
62990;SDS011;49084;48.204;16.202;2023-04-03T05:44:51;6.22;;;2.85;;
62990;SDS011;49084;48.204;16.202;2023-04-03T05:47:17;5.75;;;2.78;;
62990;SDS011;49084;48.204;16.202;2023-04-03T05:49:43;2.17;;;1.98;;
62990;SDS011;49084;48.204;16.202;2023-04-03T05:55:10;4.18;;;2.10;;
62990;SDS011;49084;48.204;16.202;2023-04-03T05:57:36;5.10;;;2.17;;
62990;SDS011;49084;48.204;16.202;2023-04-03T06:00:03;4.57;;;2.53;;
62990;SDS011;49084;48.204;16.202;2023-04-03T06:02:30;3.33;;;2.58;;
62990;SDS011;49084;48.204;16.202;2023-04-03T06:04:56;3.08;;;2.08;;
62990;SDS011;49084;48.204;16.202;2023-04-03T06:07:23;3.28;;;2.22;;
62990;SDS011;49084;48.204;16.202;2023-04-03T06:09:53;3.65;;;2.13;;
62990;SDS011;49084;48.204;16.202;2023-04-03T06:12:20;3.70;;;2.25;;
62990;SDS011;49084;48.204;16.202;2023-04-03T06:14:47;4.85;;;2.30;;
62990;SDS011;49084;48.204;16.202;2023-04-03T06:17:13;4.63;;;2.40;;
62990;SDS011;49084;48.204;16.202;2023-04-03T06:19:40;5.85;;;2.20;;
62990;SDS011;49084;48.204;16.202;2023-04-03T06:22:06;4.43;;;2.22;;
62990;SDS011;49084;48.204;16.202;2023-04-03T06:24:32;5.40;;;2.38;;
62990;SDS011;49084;48.204;16.202;2023-04-03T06:26:58;6.38;;;2.40;;
62990;SDS011;49084;48.204;16.202;2023-04-03T06:29:24;5.10;;;2.97;;
62990;SDS011;49084;48.204;16.202;2023-04-03T06:31:50;4.18;;;3.17;;
62990;SDS011;49084;48.204;16.202;2023-04-03T06:34:17;3.53;;;2.38;;
62990;SDS011;49084;48.204;16.202;2023-04-03T06:36:43;4.00;;;2.15;;
62990;SDS011;49084;48.204;16.202;2023-04-03T06:39:14;5.88;;;2.42;;
62990;SDS011;49084;48.204;16.202;2023-04-03T06:41:41;4.38;;;2.25;;
62990;SDS011;49084;48.204;16.202;2023-04-03T06:44:07;4.57;;;2.60;;
62990;SDS011;49084;48.204;16.202;2023-04-03T06:46:36;6.23;;;2.50;;
62990;SDS011;49084;48.204;16.202;2023-04-03T06:49:02;4.30;;;2.17;;
62990;SDS011;49084;48.204;16.202;2023-04-03T06:51:29;4.72;;;2.22;;
62990;SDS011;49084;48.204;16.202;2023-04-03T06:53:56;3.38;;;2.20;;
62990;SDS011;49084;48.204;16.202;2023-04-03T06:56:23;3.67;;;2.10;;
62990;SDS011;49084;48.204;16.202;2023-04-03T06:58:50;5.38;;;2.08;;
62990;SDS011;49084;48.204;16.202;2023-04-03T07:01:16;5.50;;;2.42;;
62990;SDS011;49084;48.204;16.202;2023-04-03T07:03:44;6.03;;;2.47;;
62990;SDS011;49084;48.204;16.202;2023-04-03T07:06:11;6.40;;;2.25;;
62990;SDS011;49084;48.204;16.202;2023-04-03T07:08:38;4.78;;;2.38;;
62990;SDS011;49084;48.204;16.202;2023-04-03T07:11:05;7.57;;;2.30;;
62990;SDS011;49084;48.204;16.202;2023-04-03T07:13:31;7.13;;;2.20;;
62990;SDS011;49084;48.204;16.202;2023-04-03T07:15:57;5.80;;;2.33;;
62990;SDS011;49084;48.204;16.202;2023-04-03T07:18:23;6.93;;;2.95;;
62990;SDS011;49084;48.204;16.202;2023-04-03T07:20:50;4.68;;;2.30;;
62990;SDS011;49084;48.204;16.202;2023-04-03T07:23:16;4.25;;;2.55;;
62990;SDS011;49084;48.204;16.202;2023-04-03T07:25:45;4.70;;;2.40;;
62990;SDS011;49084;48.204;16.202;2023-04-03T07:28:11;3.58;;;2.03;;
62990;SDS011;49084;48.204;16.202;2023-04-03T07:30:51;3.92;;;2.50;;
62990;SDS011;49084;48.204;16.202;2023-04-03T07:33:18;4.85;;;2.15;;
62990;SDS011;49084;48.204;16.202;2023-04-03T07:35:46;4.32;;;2.58;;
62990;SDS011;49084;48.204;16.202;2023-04-03T07:38:12;3.72;;;1.70;;
62990;SDS011;49084;48.204;16.202;2023-04-03T07:40:38;4.38;;;2.83;;
62990;SDS011;49084;48.204;16.202;2023-04-03T07:43:05;6.93;;;3.53;;
62990;SDS011;49084;48.204;16.202;2023-04-03T07:45:32;6.80;;;2.47;;
62990;SDS011;49084;48.204;16.202;2023-04-03T07:50:26;5.80;;;2.88;;
62990;SDS011;49084;48.204;16.202;2023-04-03T07:52:52;8.23;;;2.90;;
62990;SDS011;49084;48.204;16.202;2023-04-03T07:55:21;5.18;;;2.03;;
62990;SDS011;49084;48.204;16.202;2023-04-03T07:57:47;3.13;;;2.17;;
62990;SDS011;49084;48.204;16.202;2023-04-03T08:00:14;5.22;;;2.00;;
62990;SDS011;49084;48.204;16.202;2023-04-03T08:02:40;3.85;;;2.00;;
62990;SDS011;49084;48.204;16.202;2023-04-03T08:05:05;4.03;;;1.95;;
62990;SDS011;49084;48.204;16.202;2023-04-03T08:07:31;3.60;;;1.98;;
62990;SDS011;49084;48.204;16.202;2023-04-03T08:09:57;3.42;;;2.22;;
62990;SDS011;49084;48.204;16.202;2023-04-03T08:12:23;3.65;;;2.13;;
62990;SDS011;49084;48.204;16.202;2023-04-03T08:14:48;4.60;;;2.20;;
62990;SDS011;49084;48.204;16.202;2023-04-03T08:17:14;4.82;;;2.22;;
62990;SDS011;49084;48.204;16.202;2023-04-03T08:19:40;4.20;;;1.90;;
62990;SDS011;49084;48.204;16.202;2023-04-03T08:22:06;4.00;;;1.70;;
62990;SDS011;49084;48.204;16.202;2023-04-03T08:24:35;4.25;;;2.47;;
62990;SDS011;49084;48.204;16.202;2023-04-03T08:27:00;5.85;;;1.85;;
62990;SDS011;49084;48.204;16.202;2023-04-03T08:29:27;3.95;;;2.13;;
62990;SDS011;49084;48.204;16.202;2023-04-03T08:31:53;2.90;;;1.88;;
62990;SDS011;49084;48.204;16.202;2023-04-03T08:34:19;3.40;;;1.70;;
62990;SDS011;49084;48.204;16.202;2023-04-03T08:36:45;2.70;;;1.55;;
62990;SDS011;49084;48.204;16.202;2023-04-03T08:39:11;4.28;;;1.73;;
62990;SDS011;49084;48.204;16.202;2023-04-03T08:41:38;3.08;;;2.00;;
62990;SDS011;49084;48.204;16.202;2023-04-03T08:49:40;4.68;;;1.83;;
62990;SDS011;49084;48.204;16.202;2023-04-03T08:52:26;3.47;;;2.28;;
62990;SDS011;49084;48.204;16.202;2023-04-03T08:55:28;2.97;;;1.92;;
62990;SDS011;49084;48.204;16.202;2023-04-03T08:58:26;4.97;;;1.50;;
62990;SDS011;49084;48.204;16.202;2023-04-03T09:03:32;2.10;;;1.80;;
62990;SDS011;49084;48.204;16.202;2023-04-03T09:16:55;5.03;;;1.65;;
62990;SDS011;49084;48.204;16.202;2023-04-03T09:22:07;4.93;;;2.55;;
62990;SDS011;49084;48.204;16.202;2023-04-03T09:24:35;3.15;;;1.70;;
62990;SDS011;49084;48.204;16.202;2023-04-03T09:27:05;4.28;;;2.40;;
62990;SDS011;49084;48.204;16.202;2023-04-03T09:29:37;3.67;;;2.08;;
62990;SDS011;49084;48.204;16.202;2023-04-03T09:32:18;3.30;;;2.05;;
62990;SDS011;49084;48.204;16.202;2023-04-03T09:34:56;4.03;;;2.45;;
62990;SDS011;49084;48.204;16.202;2023-04-03T09:40:03;4.55;;;1.88;;
62990;SDS011;49084;48.204;16.202;2023-04-03T09:42:30;3.60;;;2.13;;
62990;SDS011;49084;48.204;16.202;2023-04-03T09:52:40;2.85;;;1.65;;
62990;SDS011;49084;48.204;16.202;2023-04-03T09:55:10;2.58;;;1.67;;
62990;SDS011;49084;48.204;16.202;2023-04-03T09:57:53;2.63;;;1.25;;
62990;SDS011;49084;48.204;16.202;2023-04-03T10:02:51;1.88;;;1.55;;
62990;SDS011;49084;48.204;16.202;2023-04-03T10:05:37;1.58;;;1.27;;
62990;SDS011;49084;48.204;16.202;2023-04-03T10:10:39;1.60;;;1.30;;
62990;SDS011;49084;48.204;16.202;2023-04-03T10:13:13;4.93;;;1.63;;
62990;SDS011;49084;48.204;16.202;2023-04-03T10:15:44;2.75;;;1.00;;
62990;SDS011;49084;48.204;16.202;2023-04-03T10:21:13;1.85;;;1.50;;
62990;SDS011;49084;48.204;16.202;2023-04-03T10:23:48;2.33;;;1.63;;
62990;SDS011;49084;48.204;16.202;2023-04-03T10:34:42;2.60;;;1.23;;
62990;SDS011;49084;48.204;16.202;2023-04-03T10:37:23;3.03;;;1.02;;
62990;SDS011;49084;48.204;16.202;2023-04-03T10:40:11;8.43;;;1.70;;
62990;SDS011;49084;48.204;16.202;2023-04-03T10:42:56;2.00;;;1.40;;
62990;SDS011;49084;48.204;16.202;2023-04-03T10:45:26;4.32;;;1.25;;
62990;SDS011;49084;48.204;16.202;2023-04-03T10:48:08;1.73;;;1.40;;
62990;SDS011;49084;48.204;16.202;2023-04-03T10:58:54;7.18;;;1.42;;
62990;SDS011;49084;48.204;16.202;2023-04-03T11:01:27;2.30;;;1.90;;
62990;SDS011;49084;48.204;16.202;2023-04-03T11:03:59;2.42;;;1.67;;
62990;SDS011;49084;48.204;16.202;2023-04-03T11:06:32;1.85;;;1.30;;
62990;SDS011;49084;48.204;16.202;2023-04-03T11:09:16;1.88;;;1.45;;
62990;SDS011;49084;48.204;16.202;2023-04-03T11:11:48;4.30;;;1.52;;
62990;SDS011;49084;48.204;16.202;2023-04-03T11:14:49;2.00;;;1.55;;
62990;SDS011;49084;48.204;16.202;2023-04-03T11:24:57;2.33;;;1.00;;
62990;SDS011;49084;48.204;16.202;2023-04-03T11:27:42;2.15;;;1.42;;
62990;SDS011;49084;48.204;16.202;2023-04-03T11:30:19;1.98;;;1.40;;
62990;SDS011;49084;48.204;16.202;2023-04-03T11:37:46;6.20;;;1.40;;
62990;SDS011;49084;48.204;16.202;2023-04-03T11:42:42;1.63;;;1.35;;
62990;SDS011;49084;48.204;16.202;2023-04-03T11:47:58;2.38;;;1.60;;
62990;SDS011;49084;48.204;16.202;2023-04-03T11:50:47;2.40;;;1.90;;
62990;SDS011;49084;48.204;16.202;2023-04-03T11:58:17;2.65;;;1.42;;
62990;SDS011;49084;48.204;16.202;2023-04-03T12:00:54;2.63;;;1.45;;
62990;SDS011;49084;48.204;16.202;2023-04-03T12:05:56;7.43;;;1.42;;
62990;SDS011;49084;48.204;16.202;2023-04-03T12:13:36;4.07;;;1.58;;
62990;SDS011;49084;48.204;16.202;2023-04-03T12:16:19;3.75;;;1.92;;
62990;SDS011;49084;48.204;16.202;2023-04-03T12:26:33;2.80;;;1.70;;
62990;SDS011;49084;48.204;16.202;2023-04-03T12:32:01;3.20;;;1.70;;
62990;SDS011;49084;48.204;16.202;2023-04-03T12:46:48;2.45;;;1.65;;
62990;SDS011;49084;48.204;16.202;2023-04-03T12:51:57;3.05;;;1.50;;
62990;SDS011;49084;48.204;16.202;2023-04-03T12:57:11;5.95;;;1.83;;
62990;SDS011;49084;48.204;16.202;2023-04-03T12:59:40;3.75;;;1.90;;
62990;SDS011;49084;48.204;16.202;2023-04-03T13:04:48;3.92;;;1.67;;
62990;SDS011;49084;48.204;16.202;2023-04-03T13:07:22;7.00;;;1.90;;
62990;SDS011;49084;48.204;16.202;2023-04-03T13:10:09;3.22;;;1.80;;
62990;SDS011;49084;48.204;16.202;2023-04-03T13:12:48;3.13;;;1.48;;
62990;SDS011;49084;48.204;16.202;2023-04-03T13:17:55;4.53;;;1.90;;
62990;SDS011;49084;48.204;16.202;2023-04-03T13:25:34;4.57;;;1.60;;
62990;SDS011;49084;48.204;16.202;2023-04-03T13:28:05;5.78;;;1.55;;
62990;SDS011;49084;48.204;16.202;2023-04-03T13:30:36;4.00;;;1.77;;
62990;SDS011;49084;48.204;16.202;2023-04-03T13:33:04;4.30;;;1.63;;
62990;SDS011;49084;48.204;16.202;2023-04-03T13:38:27;2.95;;;1.60;;
62990;SDS011;49084;48.204;16.202;2023-04-03T13:40:57;4.68;;;1.95;;
62990;SDS011;49084;48.204;16.202;2023-04-03T13:43:30;3.97;;;1.52;;
62990;SDS011;49084;48.204;16.202;2023-04-03T13:48:36;3.78;;;1.92;;
62990;SDS011;49084;48.204;16.202;2023-04-03T13:51:16;3.00;;;1.58;;
62990;SDS011;49084;48.204;16.202;2023-04-03T13:53:45;2.78;;;1.63;;
62990;SDS011;49084;48.204;16.202;2023-04-03T14:01:47;2.60;;;1.25;;
62990;SDS011;49084;48.204;16.202;2023-04-03T14:04:33;3.47;;;1.83;;
62990;SDS011;49084;48.204;16.202;2023-04-03T14:07:01;7.78;;;1.92;;
62990;SDS011;49084;48.204;16.202;2023-04-03T14:09:28;3.13;;;1.48;;
62990;SDS011;49084;48.204;16.202;2023-04-03T14:11:59;4.32;;;1.58;;
62990;SDS011;49084;48.204;16.202;2023-04-03T14:14:31;3.35;;;1.75;;
62990;SDS011;49084;48.204;16.202;2023-04-03T14:17:00;8.48;;;3.20;;
62990;SDS011;49084;48.204;16.202;2023-04-03T14:19:32;9.25;;;2.45;;
62990;SDS011;49084;48.204;16.202;2023-04-03T14:22:00;9.63;;;3.30;;
62990;SDS011;49084;48.204;16.202;2023-04-03T14:24:31;2.70;;;1.48;;
62990;SDS011;49084;48.204;16.202;2023-04-03T14:26:57;4.80;;;2.15;;
62990;SDS011;49084;48.204;16.202;2023-04-03T14:29:24;6.97;;;1.92;;
62990;SDS011;49084;48.204;16.202;2023-04-03T14:31:50;5.03;;;2.20;;
62990;SDS011;49084;48.204;16.202;2023-04-03T14:34:16;7.18;;;2.35;;
62990;SDS011;49084;48.204;16.202;2023-04-03T14:36:43;6.28;;;2.00;;
62990;SDS011;49084;48.204;16.202;2023-04-03T14:39:18;5.90;;;2.15;;
62990;SDS011;49084;48.204;16.202;2023-04-03T14:41:44;11.55;;;4.60;;
62990;SDS011;49084;48.204;16.202;2023-04-03T14:44:10;5.55;;;2.05;;
62990;SDS011;49084;48.204;16.202;2023-04-03T14:46:38;8.68;;;2.70;;
62990;SDS011;49084;48.204;16.202;2023-04-03T14:49:18;6.15;;;1.88;;
62990;SDS011;49084;48.204;16.202;2023-04-03T14:51:46;4.60;;;1.60;;
62990;SDS011;49084;48.204;16.202;2023-04-03T14:54:17;5.38;;;1.55;;
62990;SDS011;49084;48.204;16.202;2023-04-03T14:56:50;2.10;;;1.40;;
62990;SDS011;49084;48.204;16.202;2023-04-03T14:59:16;4.97;;;1.90;;
62990;SDS011;49084;48.204;16.202;2023-04-03T15:01:45;4.35;;;1.80;;
62990;SDS011;49084;48.204;16.202;2023-04-03T15:04:18;2.65;;;1.35;;
62990;SDS011;49084;48.204;16.202;2023-04-03T15:06:45;4.40;;;1.38;;
62990;SDS011;49084;48.204;16.202;2023-04-03T15:09:34;3.05;;;1.30;;
62990;SDS011;49084;48.204;16.202;2023-04-03T15:12:00;2.45;;;1.05;;
62990;SDS011;49084;48.204;16.202;2023-04-03T15:14:26;7.00;;;1.92;;
62990;SDS011;49084;48.204;16.202;2023-04-03T15:16:52;5.63;;;1.70;;
62990;SDS011;49084;48.204;16.202;2023-04-03T15:19:18;1.88;;;1.45;;
62990;SDS011;49084;48.204;16.202;2023-04-03T15:21:44;2.00;;;1.27;;
62990;SDS011;49084;48.204;16.202;2023-04-03T15:24:10;4.68;;;1.40;;
62990;SDS011;49084;48.204;16.202;2023-04-03T15:26:36;4.25;;;1.55;;
62990;SDS011;49084;48.204;16.202;2023-04-03T15:29:04;5.03;;;2.00;;
62990;SDS011;49084;48.204;16.202;2023-04-03T15:31:29;2.80;;;1.35;;
62990;SDS011;49084;48.204;16.202;2023-04-03T15:33:56;1.98;;;1.23;;
62990;SDS011;49084;48.204;16.202;2023-04-03T15:36:22;2.80;;;1.30;;
62990;SDS011;49084;48.204;16.202;2023-04-03T15:38:47;3.97;;;1.40;;
62990;SDS011;49084;48.204;16.202;2023-04-03T15:41:13;5.55;;;1.45;;
62990;SDS011;49084;48.204;16.202;2023-04-03T15:43:39;2.08;;;1.20;;
62990;SDS011;49084;48.204;16.202;2023-04-03T15:46:05;2.70;;;1.50;;
62990;SDS011;49084;48.204;16.202;2023-04-03T15:48:30;2.63;;;1.63;;
62990;SDS011;49084;48.204;16.202;2023-04-03T15:50:56;2.25;;;0.90;;
62990;SDS011;49084;48.204;16.202;2023-04-03T15:53:22;1.63;;;1.20;;
62990;SDS011;49084;48.204;16.202;2023-04-03T15:55:54;2.92;;;1.30;;
62990;SDS011;49084;48.204;16.202;2023-04-03T15:58:20;3.50;;;1.40;;
62990;SDS011;49084;48.204;16.202;2023-04-03T16:00:45;3.33;;;1.33;;
62990;SDS011;49084;48.204;16.202;2023-04-03T16:03:12;6.57;;;1.23;;
62990;SDS011;49084;48.204;16.202;2023-04-03T16:05:41;6.40;;;1.50;;
62990;SDS011;49084;48.204;16.202;2023-04-03T16:08:07;5.43;;;1.67;;
62990;SDS011;49084;48.204;16.202;2023-04-03T16:10:34;3.95;;;1.83;;
62990;SDS011;49084;48.204;16.202;2023-04-03T16:13:01;1.92;;;1.27;;
62990;SDS011;49084;48.204;16.202;2023-04-03T16:15:26;5.43;;;1.67;;
62990;SDS011;49084;48.204;16.202;2023-04-03T16:17:53;4.68;;;1.88;;
62990;SDS011;49084;48.204;16.202;2023-04-03T16:20:19;3.47;;;1.67;;
62990;SDS011;49084;48.204;16.202;2023-04-03T16:22:46;5.40;;;1.92;;
62990;SDS011;49084;48.204;16.202;2023-04-03T16:25:13;3.28;;;1.80;;
62990;SDS011;49084;48.204;16.202;2023-04-03T16:27:39;5.03;;;1.55;;
62990;SDS011;49084;48.204;16.202;2023-04-03T16:30:05;3.30;;;1.42;;
62990;SDS011;49084;48.204;16.202;2023-04-03T16:32:32;4.85;;;1.90;;
62990;SDS011;49084;48.204;16.202;2023-04-03T16:34:58;3.90;;;1.23;;
62990;SDS011;49084;48.204;16.202;2023-04-03T16:37:24;7.32;;;2.45;;
62990;SDS011;49084;48.204;16.202;2023-04-03T16:39:50;3.15;;;1.60;;
62990;SDS011;49084;48.204;16.202;2023-04-03T16:42:16;3.63;;;1.60;;
62990;SDS011;49084;48.204;16.202;2023-04-03T16:44:42;2.58;;;1.40;;
62990;SDS011;49084;48.204;16.202;2023-04-03T16:47:08;2.85;;;1.70;;
62990;SDS011;49084;48.204;16.202;2023-04-03T16:49:34;4.70;;;1.48;;
62990;SDS011;49084;48.204;16.202;2023-04-03T16:52:01;2.35;;;1.50;;
62990;SDS011;49084;48.204;16.202;2023-04-03T16:54:28;4.43;;;1.80;;
62990;SDS011;49084;48.204;16.202;2023-04-03T16:56:54;8.52;;;2.90;;
62990;SDS011;49084;48.204;16.202;2023-04-03T16:59:19;2.72;;;1.13;;
62990;SDS011;49084;48.204;16.202;2023-04-03T17:01:45;3.05;;;1.67;;
62990;SDS011;49084;48.204;16.202;2023-04-03T17:04:11;3.88;;;2.03;;
62990;SDS011;49084;48.204;16.202;2023-04-03T17:06:38;3.83;;;1.52;;
62990;SDS011;49084;48.204;16.202;2023-04-03T17:09:04;4.10;;;1.63;;
62990;SDS011;49084;48.204;16.202;2023-04-03T17:11:31;3.75;;;2.10;;
62990;SDS011;49084;48.204;16.202;2023-04-03T17:13:57;9.27;;;3.67;;
62990;SDS011;49084;48.204;16.202;2023-04-03T17:16:23;2.75;;;1.40;;